Time;durP1;ratioP1;P1;durP2;ratioP2;P2;SDS_P1;SDS_P2;PMS_P1;PMS_P2;Temp;Humidity;BMP_temperature;BMP_pressure;BME280_temperature;BME280_humidity;BME280_pressure;Samples;Min_cycle;Max_cycle;Signal;HPM_P1;HPM_P2
2023/05/04 00:01:50;;;;;;;4.50;2.80;;;25.80;99.90;;;;;;4993411;28;20404;-54
2023/05/04 00:04:16;;;;;;;6.25;3.38;;;25.80;99.90;;;;;;4993263;28;20034;-55
2023/05/04 00:06:42;;;;;;;5.03;3.08;;;25.80;99.90;;;;;;4993301;28;20050;-55
2023/05/04 00:09:10;;;;;;;5.82;3.38;;;25.80;99.90;;;;;;4993365;28;20046;-54
2023/05/04 00:11:36;;;;;;;5.38;3.20;;;25.80;99.90;;;;;;4992399;28;20049;-54
2023/05/04 00:14:02;;;;;;;7.23;3.33;;;25.80;99.90;;;;;;5006104;28;20033;-54
2023/05/04 00:16:28;;;;;;;5.00;2.92;;;25.80;99.90;;;;;;4993765;28;20388;-54
2023/05/04 00:18:54;;;;;;;7.38;3.38;;;25.80;99.90;;;;;;4993191;28;20155;-54
2023/05/04 00:21:19;;;;;;;4.45;3.08;;;25.80;99.90;;;;;;4993182;28;20473;-54
2023/05/04 00:23:45;;;;;;;4.85;2.95;;;25.80;99.90;;;;;;5006057;28;20114;-54
2023/05/04 00:26:11;;;;;;;5.93;3.22;;;25.80;99.90;;;;;;4992947;28;20076;-54
2023/05/04 00:28:36;;;;;;;4.38;3.08;;;25.80;99.90;;;;;;4992930;28;20022;-55
2023/05/04 00:31:02;;;;;;;7.22;3.50;;;25.80;99.90;;;;;;4993192;28;20034;-55
2023/05/04 00:33:28;;;;;;;4.65;2.83;;;25.80;99.90;;;;;;4993345;28;20026;-55
2023/05/04 00:35:54;;;;;;;5.60;3.28;;;25.80;99.90;;;;;;4991713;28;20027;-55
2023/05/04 00:38:20;;;;;;;5.55;3.40;;;25.80;99.90;;;;;;4992661;28;20392;-55
2023/05/04 00:40:46;;;;;;;4.63;2.95;;;25.80;99.90;;;;;;4992495;28;20372;-54
2023/05/04 00:43:11;;;;;;;5.55;3.72;;;25.80;99.90;;;;;;4991490;28;20109;-55
2023/05/04 00:45:38;;;;;;;4.07;2.70;;;25.80;99.90;;;;;;4992756;28;20021;-54
2023/05/04 00:48:05;;;;;;;6.45;3.28;;;25.80;99.90;;;;;;5005850;28;20030;-55
2023/05/04 00:50:31;;;;;;;6.30;3.30;;;25.80;99.90;;;;;;4991467;28;20389;-54
2023/05/04 00:53:00;;;;;;;5.75;3.63;;;25.80;99.90;;;;;;4992407;28;20035;-54
2023/05/04 00:55:26;;;;;;;5.65;3.70;;;25.80;99.90;;;;;;4992174;28;20511;-54
2023/05/04 00:57:52;;;;;;;4.93;3.03;;;25.80;99.90;;;;;;4992691;28;20038;-54
2023/05/04 01:00:18;;;;;;;6.43;3.15;;;25.80;99.90;;;;;;5008045;23;20038;-46
2023/05/04 01:02:44;;;;;;;6.05;3.80;;;25.80;99.90;;;;;;4992480;28;20038;-47
2023/05/04 01:05:11;;;;;;;5.38;3.10;;;25.80;99.90;;;;;;4992607;28;20026;-47
2023/05/04 01:08:05;;;;;;;6.35;3.33;;;25.80;99.90;;;;;;4992356;28;20460;-47
2023/05/04 01:10:52;;;;;;;5.57;3.67;;;25.70;99.90;;;;;;4992491;28;20034;-47
2023/05/04 01:13:21;;;;;;;4.70;3.10;;;25.70;99.90;;;;;;4992664;28;20034;-47
2023/05/04 01:15:48;;;;;;;5.13;3.70;;;25.70;99.90;;;;;;4992526;28;20022;-47
2023/05/04 01:18:15;;;;;;;6.57;3.65;;;25.70;99.90;;;;;;4992539;28;20593;-48
2023/05/04 01:20:41;;;;;;;5.63;3.45;;;25.70;99.90;;;;;;4992551;28;20380;-48
2023/05/04 01:23:08;;;;;;;6.65;3.47;;;25.70;99.90;;;;;;4994873;28;20102;-48
2023/05/04 01:25:43;;;;;;;8.40;3.38;;;25.70;99.90;;;;;;4996420;28;20023;-48
2023/05/04 01:28:19;;;;;;;6.30;3.65;;;25.70;99.90;;;;;;4996412;28;20026;-47
2023/05/04 01:30:50;;;;;;;7.88;4.03;;;25.70;99.90;;;;;;4996000;28;20030;-47
2023/05/04 01:33:17;;;;;;;4.35;3.45;;;25.70;99.90;;;;;;4996375;28;20041;-47
2023/05/04 01:35:43;;;;;;;5.40;3.28;;;25.70;99.90;;;;;;4994914;28;20476;-47
2023/05/04 01:38:09;;;;;;;4.90;3.42;;;25.70;99.90;;;;;;4996161;28;20045;-48
2023/05/04 01:40:34;;;;;;;5.57;3.65;;;25.70;99.90;;;;;;4996130;28;20018;-47
2023/05/04 01:43:00;;;;;;;6.13;3.95;;;25.70;99.90;;;;;;4994993;28;20026;-48
2023/05/04 01:45:26;;;;;;;5.00;3.38;;;25.70;99.90;;;;;;4995964;28;20294;-49
2023/05/04 01:47:52;;;;;;;5.13;3.50;;;25.70;99.90;;;;;;4983303;28;20026;-49
2023/05/04 01:50:18;;;;;;;6.97;5.05;;;25.70;99.90;;;;;;4996095;28;20028;-47
2023/05/04 01:52:43;;;;;;;5.80;3.50;;;25.70;99.90;;;;;;4995711;28;20040;-48
2023/05/04 01:55:09;;;;;;;7.00;4.15;;;25.70;99.90;;;;;;4995992;28;20030;-48
2023/05/04 01:57:35;;;;;;;6.50;4.05;;;25.60;99.90;;;;;;4995809;28;20022;-49
2023/05/04 02:00:01;;;;;;;5.63;4.03;;;25.70;99.90;;;;;;4995660;28;20029;-48
2023/05/04 02:02:26;;;;;;;7.30;3.65;;;25.60;99.90;;;;;;4996103;28;20047;-49
2023/05/04 02:04:52;;;;;;;5.07;3.85;;;25.60;99.90;;;;;;4995896;28;20117;-47
2023/05/04 02:07:18;;;;;;;6.47;4.00;;;25.60;99.90;;;;;;4995468;28;20061;-48
2023/05/04 02:09:44;;;;;;;7.00;4.65;;;25.60;99.90;;;;;;4995616;28;20053;-49
2023/05/04 02:12:09;;;;;;;4.95;3.70;;;25.60;99.90;;;;;;4995326;28;20041;-48
2023/05/04 02:14:35;;;;;;;5.22;4.28;;;25.60;99.90;;;;;;4995304;28;20072;-47
2023/05/04 02:17:01;;;;;;;5.45;3.85;;;25.60;99.90;;;;;;4995573;28;20056;-48
2023/05/04 02:19:27;;;;;;;6.28;4.45;;;25.60;99.90;;;;;;4994487;28;20023;-47
2023/05/04 02:21:52;;;;;;;5.82;3.78;;;25.60;99.90;;;;;;4995573;28;20081;-50
2023/05/04 02:24:18;;;;;;;5.90;3.83;;;25.60;99.90;;;;;;4995104;28;20030;-48
2023/05/04 02:26:44;;;;;;;4.68;3.72;;;25.60;99.90;;;;;;4995347;28;20380;-49
2023/05/04 02:29:10;;;;;;;4.80;3.65;;;25.60;99.90;;;;;;4994939;28;20113;-49
2023/05/04 02:31:35;;;;;;;7.97;4.10;;;25.60;99.90;;;;;;4995612;28;20069;-53
2023/05/04 02:34:01;;;;;;;6.68;4.57;;;25.60;99.90;;;;;;4993998;28;20018;-49
2023/05/04 02:36:27;;;;;;;5.88;4.15;;;25.60;99.90;;;;;;4995394;28;20026;-48
2023/05/04 02:38:59;;;;;;;6.38;4.47;;;25.60;99.90;;;;;;4995233;28;20026;-50
2023/05/04 02:41:25;;;;;;;6.60;4.15;;;25.60;99.90;;;;;;4995211;28;20026;-49
2023/05/04 02:43:51;;;;;;;5.43;3.97;;;25.60;99.90;;;;;;4995019;28;20086;-48
2023/05/04 02:46:18;;;;;;;6.07;3.95;;;25.60;99.90;;;;;;4995323;28;20047;-48
2023/05/04 02:48:44;;;;;;;5.10;3.80;;;25.60;99.90;;;;;;4995123;28;20029;-48
2023/05/04 02:51:10;;;;;;;6.85;4.40;;;25.60;99.90;;;;;;4994717;28;20480;-48
2023/05/04 02:53:36;;;;;;;5.13;4.05;;;25.50;99.90;;;;;;4994791;28;20035;-48
2023/05/04 02:56:02;;;;;;;7.32;4.55;;;25.50;99.90;;;;;;4994504;28;20019;-48
2023/05/04 02:58:27;;;;;;;6.70;4.00;;;25.50;99.90;;;;;;4993771;28;20432;-48
2023/05/04 03:00:54;;;;;;;5.45;3.83;;;25.50;99.90;;;;;;4994891;28;20050;-48
2023/05/04 03:03:20;;;;;;;6.55;4.10;;;25.50;99.90;;;;;;4994830;28;20030;-48
2023/05/04 03:05:46;;;;;;;6.18;4.03;;;25.50;99.90;;;;;;4994601;28;20027;-49
2023/05/04 03:08:12;;;;;;;4.95;3.78;;;25.50;99.90;;;;;;4994434;28;20027;-48
2023/05/04 03:10:38;;;;;;;6.72;4.35;;;25.50;99.90;;;;;;4994351;28;20027;-48
2023/05/04 03:13:04;;;;;;;5.30;3.95;;;25.50;99.90;;;;;;4994505;28;20113;-48
2023/05/04 03:15:33;;;;;;;5.45;3.75;;;25.50;99.90;;;;;;4994415;28;20062;-48
2023/05/04 03:17:59;;;;;;;5.28;4.05;;;25.50;99.90;;;;;;4981970;28;20381;-48
2023/05/04 03:20:25;;;;;;;6.95;4.28;;;25.50;99.90;;;;;;4994483;28;20014;-48
2023/05/04 03:22:51;;;;;;;5.85;3.75;;;25.50;99.90;;;;;;4999861;28;20021;-48
2023/05/04 03:25:17;;;;;;;5.03;3.70;;;25.50;99.90;;;;;;5002133;28;20057;-48
2023/05/04 03:27:43;;;;;;;6.72;3.97;;;25.50;99.90;;;;;;4994249;28;20026;-49
2023/05/04 03:30:09;;;;;;;7.07;4.50;;;25.50;99.90;;;;;;4994128;28;20445;-49
2023/05/04 03:32:35;;;;;;;5.93;4.22;;;25.50;99.90;;;;;;4993989;28;20030;-48
2023/05/04 03:35:01;;;;;;;5.78;4.00;;;25.50;99.90;;;;;;4994454;28;20018;-47
2023/05/04 03:37:27;;;;;;;7.00;4.40;;;25.50;99.90;;;;;;4994150;28;20041;-47
2023/05/04 03:39:52;;;;;;;6.95;4.28;;;25.50;99.90;;;;;;4993887;28;20019;-48
2023/05/04 03:42:18;;;;;;;6.13;3.75;;;25.50;99.90;;;;;;4994697;28;20037;-48
2023/05/04 03:44:45;;;;;;;5.28;3.78;;;25.40;99.90;;;;;;5005875;28;20057;-48
2023/05/04 03:47:11;;;;;;;5.47;3.93;;;25.40;99.90;;;;;;4993801;28;20388;-48
2023/05/04 03:49:36;;;;;;;8.02;4.68;;;25.40;99.90;;;;;;4993935;28;20026;-47
2023/05/04 03:52:02;;;;;;;8.90;4.28;;;25.40;99.90;;;;;;4993704;28;20030;-48
2023/05/04 03:54:28;;;;;;;6.03;3.75;;;25.40;99.90;;;;;;4993779;28;20057;-49
2023/05/04 03:56:54;;;;;;;7.85;4.13;;;25.40;99.90;;;;;;4993738;28;20030;-46
2023/05/04 03:59:19;;;;;;;5.43;3.67;;;25.40;99.90;;;;;;4993496;28;20025;-47
2023/05/04 04:01:45;;;;;;;6.63;4.03;;;25.40;99.90;;;;;;4993830;28;20132;-47
2023/05/04 04:04:11;;;;;;;7.45;3.75;;;25.40;99.90;;;;;;4993426;28;20038;-47
2023/05/04 04:06:37;;;;;;;6.68;4.10;;;25.40;99.90;;;;;;4993458;28;20023;-47
2023/05/04 04:09:02;;;;;;;4.65;3.60;;;25.40;99.90;;;;;;4993429;28;20026;-48
2023/05/04 04:11:28;;;;;;;7.85;4.50;;;25.40;99.90;;;;;;4993642;28;20037;-47
2023/05/04 04:13:54;;;;;;;6.53;4.25;;;25.40;99.90;;;;;;4993138;28;20109;-47
2023/05/04 04:16:20;;;;;;;5.57;4.40;;;25.40;99.90;;;;;;4993367;28;20021;-47
2023/05/04 04:18:46;;;;;;;5.60;4.03;;;25.40;99.90;;;;;;4993247;28;20030;-49
2023/05/04 04:21:12;;;;;;;5.70;4.22;;;25.40;99.90;;;;;;4993112;28;20584;-48
2023/05/04 04:23:38;;;;;;;5.88;4.00;;;25.40;99.90;;;;;;5004307;28;20034;-48
2023/05/04 04:26:05;;;;;;;7.05;4.38;;;25.40;99.90;;;;;;4995113;28;20529;-48
2023/05/04 04:28:32;;;;;;;7.10;4.25;;;25.40;99.90;;;;;;4993307;28;20028;-49
2023/05/04 04:30:58;;;;;;;7.45;4.32;;;25.40;99.90;;;;;;4992775;28;20019;-48
2023/05/04 04:33:24;;;;;;;7.43;4.60;;;25.40;99.90;;;;;;4993146;28;20092;-48
2023/05/04 04:35:51;;;;;;;6.20;3.78;;;25.40;99.90;;;;;;4992919;28;20129;-48
2023/05/04 04:38:18;;;;;;;5.18;3.97;;;25.40;99.90;;;;;;4992816;28;20034;-48
2023/05/04 04:40:43;;;;;;;7.68;4.53;;;25.40;99.90;;;;;;4991448;28;20031;-47
2023/05/04 04:43:10;;;;;;;7.45;4.45;;;25.40;99.90;;;;;;4992887;28;20022;-48
2023/05/04 04:45:36;;;;;;;6.80;4.43;;;25.30;99.90;;;;;;4992597;28;20026;-49
2023/05/04 04:48:02;;;;;;;5.28;4.30;;;25.30;99.90;;;;;;4991759;28;20054;-48
2023/05/04 04:50:28;;;;;;;6.68;4.85;;;25.30;99.90;;;;;;5005177;28;20115;-48
2023/05/04 04:52:54;;;;;;;6.93;4.68;;;25.30;99.90;;;;;;4993022;28;20458;-49
2023/05/04 04:55:22;;;;;;;9.05;5.47;;;25.30;99.90;;;;;;4992746;28;20069;-48
2023/05/04 04:57:49;;;;;;;7.07;4.88;;;25.30;99.90;;;;;;4992100;28;20029;-47
2023/05/04 05:00:15;;;;;;;7.22;4.70;;;25.30;99.90;;;;;;4992459;28;20026;-47
2023/05/04 05:02:42;;;;;;;6.43;4.68;;;25.30;99.90;;;;;;4992416;28;20117;-47
2023/05/04 05:05:08;;;;;;;10.32;4.30;;;25.30;99.90;;;;;;4992665;28;20014;-47
2023/05/04 05:07:35;;;;;;;8.45;4.93;;;25.30;99.90;;;;;;4992546;28;20392;-47
2023/05/04 05:10:01;;;;;;;7.07;4.30;;;25.30;99.90;;;;;;4992733;28;20018;-47
2023/05/04 05:12:27;;;;;;;8.10;4.72;;;25.30;99.90;;;;;;4992176;28;20042;-47
2023/05/04 05:14:53;;;;;;;7.20;4.70;;;25.30;99.90;;;;;;4991154;28;20113;-48
2023/05/04 05:17:19;;;;;;;7.60;4.65;;;25.30;99.90;;;;;;4992337;28;20489;-47
2023/05/04 05:19:45;;;;;;;6.05;4.30;;;25.30;99.90;;;;;;4992339;28;20022;-47
2023/05/04 05:22:11;;;;;;;6.30;4.05;;;25.30;99.90;;;;;;4991072;28;20058;-47
2023/05/04 05:24:37;;;;;;;6.80;3.95;;;25.30;99.90;;;;;;5005337;28;20015;-47
2023/05/04 05:27:03;;;;;;;6.72;4.45;;;25.30;99.90;;;;;;4992679;28;20085;-48
2023/05/04 05:29:29;;;;;;;8.93;4.07;;;25.20;99.90;;;;;;4992072;28;20432;-48
2023/05/04 05:31:55;;;;;;;5.72;3.83;;;25.20;99.90;;;;;;4991154;28;20512;-49
2023/05/04 05:34:21;;;;;;;5.93;3.90;;;25.20;99.90;;;;;;4992210;28;20018;-48
2023/05/04 05:36:47;;;;;;;5.90;4.05;;;25.20;99.90;;;;;;5001911;28;20041;-48
2023/05/04 05:39:14;;;;;;;8.27;4.17;;;25.20;99.90;;;;;;4995414;28;20010;-48
2023/05/04 05:41:40;;;;;;;8.17;4.33;;;25.20;99.90;;;;;;4992216;28;20025;-48
2023/05/04 05:44:06;;;;;;;10.23;4.28;;;25.20;99.90;;;;;;5004962;28;20057;-48
2023/05/04 05:46:32;;;;;;;7.00;3.67;;;25.20;99.90;;;;;;4992299;28;20073;-49
2023/05/04 05:48:58;;;;;;;7.65;4.07;;;25.20;99.90;;;;;;4990704;28;20481;-48
2023/05/04 05:51:24;;;;;;;5.72;3.33;;;25.20;99.90;;;;;;4991787;28;20178;-47
2023/05/04 05:53:50;;;;;;;6.45;3.90;;;25.20;99.90;;;;;;4991936;28;20491;-47
2023/05/04 05:56:16;;;;;;;7.30;3.58;;;25.10;99.90;;;;;;4990700;28;20019;-46
2023/05/04 05:58:42;;;;;;;7.18;3.83;;;25.20;99.90;;;;;;4991908;28;20101;-48
2023/05/04 06:01:08;;;;;;;5.85;3.75;;;25.20;99.90;;;;;;4991595;28;20121;-48
2023/05/04 06:03:33;;;;;;;6.05;3.70;;;25.20;99.90;;;;;;4992088;28;20030;-47
2023/05/04 06:05:59;;;;;;;6.03;3.90;;;25.10;99.90;;;;;;4991944;28;20125;-47
2023/05/04 06:08:25;;;;;;;5.30;3.15;;;25.20;99.90;;;;;;4991852;28;20495;-47
2023/05/04 06:10:51;;;;;;;6.55;3.50;;;25.20;99.90;;;;;;4995219;28;20029;-47
2023/05/04 06:13:18;;;;;;;7.78;3.97;;;25.10;99.90;;;;;;4995526;28;20046;-48
2023/05/04 06:15:54;;;;;;;5.65;3.42;;;25.20;99.90;;;;;;4995116;28;20105;-48
2023/05/04 06:18:20;;;;;;;5.18;3.10;;;25.20;99.90;;;;;;4995394;28;20495;-48
2023/05/04 06:20:46;;;;;;;6.97;3.40;;;25.10;99.90;;;;;;4995495;28;20032;-48
2023/05/04 06:23:15;;;;;;;7.28;3.75;;;25.20;99.90;;;;;;4995391;28;20440;-48
2023/05/04 06:25:41;;;;;;;4.38;3.15;;;25.20;99.90;;;;;;4995139;28;20054;-47
2023/05/04 06:28:07;;;;;;;6.05;3.65;;;25.10;99.90;;;;;;4995640;28;20081;-48
2023/05/04 06:30:32;;;;;;;5.25;3.05;;;25.20;99.90;;;;;;4995051;28;20118;-48
2023/05/04 06:32:58;;;;;;;4.68;3.05;;;25.20;99.90;;;;;;4995121;28;20121;-48
2023/05/04 06:35:24;;;;;;;6.38;3.63;;;25.20;99.90;;;;;;4995086;28;20080;-48
2023/05/04 06:37:51;;;;;;;6.03;3.33;;;25.10;99.90;;;;;;4990546;28;20102;-48
2023/05/04 06:40:17;;;;;;;4.50;2.80;;;25.10;99.90;;;;;;4993758;28;20030;-49
2023/05/04 06:42:42;;;;;;;7.50;3.38;;;25.20;99.90;;;;;;4994821;28;20401;-50
2023/05/04 06:45:08;;;;;;;4.10;3.00;;;25.20;99.90;;;;;;4994741;28;20026;-49
2023/05/04 06:47:36;;;;;;;6.10;3.50;;;25.20;99.90;;;;;;4993828;28;20033;-49
2023/05/04 06:50:08;;;;;;;4.60;3.20;;;25.10;99.90;;;;;;4995173;28;20422;-49
2023/05/04 06:52:34;;;;;;;7.65;3.22;;;25.10;99.90;;;;;;4994679;28;20035;-49
2023/05/04 06:55:00;;;;;;;5.78;3.38;;;25.20;99.90;;;;;;4994698;28;20440;-49
2023/05/04 06:57:28;;;;;;;6.10;3.33;;;25.20;99.90;;;;;;4994592;28;20031;-50
2023/05/04 06:59:53;;;;;;;5.50;3.03;;;25.20;99.90;;;;;;4994549;28;20035;-49
2023/05/04 07:02:19;;;;;;;5.00;2.88;;;25.20;99.90;;;;;;4994512;28;20550;-49
2023/05/04 07:04:45;;;;;;;6.97;3.67;;;25.20;99.90;;;;;;5002723;28;20030;-49
2023/05/04 07:07:11;;;;;;;5.22;3.25;;;25.20;99.90;;;;;;4999384;28;20109;-49
2023/05/04 07:09:37;;;;;;;7.35;3.63;;;25.20;99.90;;;;;;4994719;28;20169;-49
2023/05/04 07:12:03;;;;;;;4.35;3.05;;;25.20;99.90;;;;;;4994650;28;20038;-49
2023/05/04 07:14:29;;;;;;;5.15;3.00;;;25.20;99.90;;;;;;4993953;28;20025;-49
2023/05/04 07:16:55;;;;;;;6.03;3.30;;;25.20;99.90;;;;;;4994327;28;20022;-48
2023/05/04 07:19:21;;;;;;;10.50;3.75;;;25.20;99.90;;;;;;4994229;28;20030;-49
2023/05/04 07:21:47;;;;;;;5.50;3.53;;;25.20;99.90;;;;;;4993973;28;20022;-49
2023/05/04 07:24:13;;;;;;;5.55;3.45;;;25.20;99.90;;;;;;4997615;28;20097;-48
2023/05/04 07:26:39;;;;;;;6.20;3.42;;;25.30;99.90;;;;;;5004513;28;20026;-49
2023/05/04 07:29:05;;;;;;;4.88;3.38;;;25.20;99.90;;;;;;4993894;28;20464;-48
2023/05/04 07:31:31;;;;;;;5.80;3.60;;;25.30;99.90;;;;;;4994136;28;20088;-49
2023/05/04 07:33:56;;;;;;;6.20;3.47;;;25.30;99.90;;;;;;4994119;28;20034;-49
2023/05/04 07:36:25;;;;;;;5.28;3.13;;;25.30;99.90;;;;;;4993899;28;20066;-49
2023/05/04 07:38:51;;;;;;;5.32;3.20;;;25.30;99.90;;;;;;5006960;28;20114;-49
2023/05/04 07:41:16;;;;;;;6.40;3.33;;;25.30;99.90;;;;;;4993996;28;20093;-49
2023/05/04 07:43:42;;;;;;;7.38;3.80;;;25.30;99.90;;;;;;4992647;28;20387;-49
2023/05/04 07:46:08;;;;;;;4.28;2.67;;;25.30;99.90;;;;;;5006931;28;20019;-49
2023/05/04 07:48:34;;;;;;;5.20;3.22;;;25.30;99.90;;;;;;4993705;28;20037;-49
2023/05/04 07:50:59;;;;;;;5.78;3.78;;;25.30;99.90;;;;;;4993491;28;20022;-49
2023/05/04 07:53:25;;;;;;;6.13;3.70;;;25.30;99.90;;;;;;4993291;28;20065;-49
2023/05/04 07:55:56;;;;;;;4.68;3.50;;;25.30;99.90;;;;;;4993364;28;20033;-48
2023/05/04 07:58:22;;;;;;;3.67;2.97;;;25.30;99.90;;;;;;4993663;28;20106;-49
2023/05/04 08:00:48;;;;;;;4.53;3.35;;;25.30;99.90;;;;;;4993255;28;20057;-49
2023/05/04 08:03:14;;;;;;;4.95;3.03;;;25.30;99.90;;;;;;4993521;28;20077;-49
2023/05/04 08:05:40;;;;;;;5.47;3.95;;;25.30;99.90;;;;;;4993648;28;20022;-49
2023/05/04 08:08:07;;;;;;;5.25;3.20;;;25.30;99.90;;;;;;4993484;28;20045;-49
2023/05/04 08:10:37;;;;;;;5.65;3.33;;;25.40;99.90;;;;;;4992931;28;20027;-49
2023/05/04 08:13:04;;;;;;;6.05;3.67;;;25.40;99.90;;;;;;5005164;28;20043;-48
2023/05/04 08:15:29;;;;;;;6.45;3.35;;;25.40;99.90;;;;;;4992847;28;20022;-48
2023/05/04 08:17:55;;;;;;;4.40;3.05;;;25.40;99.90;;;;;;4993347;28;20041;-49
2023/05/04 08:20:21;;;;;;;4.00;3.30;;;25.40;99.90;;;;;;4993108;28;20032;-48
2023/05/04 08:22:47;;;;;;;5.45;3.88;;;25.40;99.90;;;;;;4978600;28;20036;-49
2023/05/04 08:25:12;;;;;;;5.72;3.85;;;25.40;99.90;;;;;;4993889;28;20368;-49
2023/05/04 08:27:38;;;;;;;5.32;3.47;;;25.40;99.90;;;;;;4993348;28;20022;-49
2023/05/04 08:30:05;;;;;;;6.88;3.83;;;25.40;99.90;;;;;;4992829;28;20389;-49
2023/05/04 08:32:31;;;;;;;14.70;4.00;;;25.40;99.90;;;;;;4992240;28;20037;-48
2023/05/04 08:34:57;;;;;;;14.40;3.70;;;25.40;99.90;;;;;;4992995;28;20033;-48
2023/05/04 08:37:22;;;;;;;16.95;4.00;;;25.40;99.90;;;;;;4992685;28;20026;-48
2023/05/04 08:39:48;;;;;;;19.75;3.90;;;25.40;99.90;;;;;;4991739;28;20089;-47
2023/05/04 08:42:26;;;;;;;22.88;4.05;;;25.30;99.90;;;;;;4991683;28;20044;-48
2023/05/04 08:44:51;;;;;;;;;;;25.30;99.90;;;;;;4993038;28;20026;-46
2023/05/04 08:47:17;;;;;;;17.63;4.15;;;25.20;99.90;;;;;;4992610;28;20323;-47
2023/05/04 08:49:43;;;;;;;19.80;4.28;;;25.20;99.90;;;;;;4991824;28;20020;-49
2023/05/04 08:52:09;;;;;;;11.95;4.40;;;25.20;99.90;;;;;;4992617;28;20484;-48
2023/05/04 08:54:36;;;;;;;18.00;4.80;;;25.10;99.90;;;;;;4992742;28;20045;-47
2023/05/04 08:57:03;;;;;;;19.40;4.30;;;25.10;99.90;;;;;;4992703;28;20023;-47
2023/05/04 08:59:31;;;;;;;14.93;4.43;;;25.10;99.90;;;;;;4992525;28;20022;-47
2023/05/04 09:01:59;;;;;;;12.15;4.13;;;25.10;99.90;;;;;;4992321;28;20501;-47
2023/05/04 09:04:25;;;;;;;11.98;3.60;;;25.00;99.90;;;;;;4986855;28;20045;-48
2023/05/04 09:06:52;;;;;;;15.60;4.05;;;25.00;99.90;;;;;;4992472;28;20077;-48
2023/05/04 09:09:21;;;;;;;12.55;4.25;;;25.00;99.90;;;;;;4985602;28;20025;-48
2023/05/04 09:11:47;;;;;;;20.27;3.88;;;25.00;99.90;;;;;;4986974;28;20158;-49
2023/05/04 09:14:13;;;;;;;12.77;3.55;;;25.00;99.90;;;;;;4990348;28;20058;-48
2023/05/04 09:16:39;;;;;;;11.18;2.83;;;25.00;99.90;;;;;;4990104;28;20026;-47
2023/05/04 09:19:16;;;;;;;13.38;3.70;;;25.00;99.90;;;;;;4988077;28;20065;-47
2023/05/04 09:21:42;;;;;;;;;;;25.00;99.90;;;;;;4988687;28;20424;-48
2023/05/04 09:24:08;;;;;;;13.63;2.80;;;25.00;99.90;;;;;;4990598;28;19909;-45
2023/05/04 09:26:34;;;;;;;9.27;3.00;;;25.00;99.90;;;;;;4989808;28;20025;-45
2023/05/04 09:29:13;;;;;;;7.60;2.63;;;25.00;99.90;;;;;;4990170;28;20026;-46
2023/05/04 09:31:43;;;;;;;9.88;2.42;;;25.10;99.90;;;;;;4988036;28;20026;-48
2023/05/04 09:34:09;;;;;;;8.15;1.90;;;25.00;99.90;;;;;;4987616;28;20092;-47
2023/05/04 09:36:36;;;;;;;7.40;1.90;;;25.10;99.90;;;;;;4990054;28;20384;-48
2023/05/04 09:39:12;;;;;;;8.30;1.83;;;25.00;99.90;;;;;;4990146;28;20023;-47
2023/05/04 09:41:38;;;;;;;4.93;1.33;;;25.00;99.90;;;;;;4988872;28;20033;-47
2023/05/04 09:44:04;;;;;;;5.53;2.10;;;25.00;99.90;;;;;;4992236;28;20477;-47
2023/05/04 09:46:30;;;;;;;4.97;2.55;;;25.00;99.90;;;;;;4992536;28;20126;-47
2023/05/04 09:48:56;;;;;;;6.40;3.60;;;25.10;99.90;;;;;;4993796;28;20106;-48
2023/05/04 09:51:24;;;;;;;6.65;2.22;;;25.10;99.90;;;;;;4995336;28;20373;-47
2023/05/04 09:53:51;;;;;;;6.35;2.05;;;25.10;99.90;;;;;;4990024;28;20035;-48
2023/05/04 09:56:28;;;;;;;9.88;2.30;;;25.10;99.90;;;;;;4993813;28;20019;-48
2023/05/04 09:58:58;;;;;;;11.63;3.42;;;25.10;99.90;;;;;;4993023;28;20019;-48
2023/05/04 10:01:28;;;;;;;15.32;4.90;;;25.10;99.90;;;;;;4993209;28;20045;-48
2023/05/04 10:03:54;;;;;;;15.30;5.15;;;25.20;99.90;;;;;;4991316;28;20026;-48
2023/05/04 10:06:21;;;;;;;8.85;4.05;;;25.20;99.90;;;;;;4993187;28;20023;-51
2023/05/04 10:08:48;;;;;;;12.65;5.20;;;25.20;99.90;;;;;;4993331;28;20053;-47
2023/05/04 10:11:17;;;;;;;13.88;6.80;;;25.20;99.90;;;;;;4985076;28;20041;-48
2023/05/04 10:13:46;;;;;;;16.38;8.00;;;25.20;99.90;;;;;;4992070;28;20076;-49
2023/05/04 10:16:30;;;;;;;19.20;5.93;;;25.10;99.90;;;;;;4993691;28;20018;-48
2023/05/04 10:19:05;;;;;;;14.13;4.70;;;25.10;99.90;;;;;;4990500;28;20026;-46
2023/05/04 10:21:46;;;;;;;12.07;5.00;;;25.10;99.90;;;;;;4992903;28;20026;-47
2023/05/04 10:24:36;;;;;;;14.25;6.13;;;25.10;99.90;;;;;;4988149;28;20058;-47
2023/05/04 10:27:12;;;;;;;21.08;6.40;;;25.10;99.90;;;;;;4991977;28;20465;-47
2023/05/04 10:29:39;;;;;;;15.40;4.72;;;25.10;99.90;;;;;;4991183;28;20118;-47
2023/05/04 10:32:16;;;;;;;11.02;3.40;;;25.10;99.90;;;;;;4993064;28;20034;-47
2023/05/04 10:34:42;;;;;;;7.38;2.63;;;25.10;99.90;;;;;;4992765;28;20404;-48
2023/05/04 10:37:20;;;;;;;9.88;2.92;;;25.10;99.90;;;;;;4989692;28;20113;-47
2023/05/04 10:39:53;;;;;;;8.77;2.40;;;25.10;99.90;;;;;;4990589;28;20484;-49
2023/05/04 10:42:18;;;;;;;7.88;1.98;;;25.10;99.90;;;;;;4992609;28;20046;-48
2023/05/04 10:44:54;;;;;;;7.75;2.47;;;25.10;99.90;;;;;;4992647;28;20080;-48
2023/05/04 10:47:31;;;;;;;8.60;2.60;;;25.10;99.90;;;;;;4991444;28;20034;-48
2023/05/04 10:50:15;;;;;;;5.85;2.20;;;25.10;99.90;;;;;;4990620;28;20038;-47
2023/05/04 10:52:48;;;;;;;10.52;2.38;;;25.10;99.90;;;;;;4991342;28;20044;-48
2023/05/04 10:55:16;;;;;;;6.25;2.08;;;25.20;99.90;;;;;;4991826;28;20385;-50
2023/05/04 10:57:54;;;;;;;7.85;2.63;;;25.20;99.90;;;;;;4992942;28;20038;-47
2023/05/04 11:00:20;;;;;;;13.00;2.97;;;25.20;99.90;;;;;;4992478;28;20030;-47
2023/05/04 11:02:48;;;;;;;12.47;3.20;;;25.20;99.90;;;;;;4992913;28;20141;-47
2023/05/04 11:05:18;;;;;;;9.73;3.42;;;25.30;99.90;;;;;;4992741;28;20260;-47
2023/05/04 11:07:45;;;;;;;7.75;4.15;;;25.30;99.90;;;;;;4989872;28;20021;-47
2023/05/04 11:10:25;;;;;;;10.25;3.47;;;25.30;99.90;;;;;;4991894;28;20018;-48
2023/05/04 11:13:01;;;;;;;8.32;3.28;;;25.30;99.90;;;;;;4991956;28;20034;-48
2023/05/04 11:15:29;;;;;;;5.90;2.70;;;25.30;99.90;;;;;;4992055;28;20081;-49
2023/05/04 11:17:55;;;;;;;5.68;2.22;;;25.30;99.90;;;;;;4992200;28;20032;-49
2023/05/04 11:20:25;;;;;;;8.05;2.15;;;25.30;99.90;;;;;;4992101;28;20471;-48
2023/05/04 11:22:52;;;;;;;6.93;1.90;;;25.30;99.90;;;;;;4991790;28;20033;-48
2023/05/04 11:25:29;;;;;;;7.45;3.38;;;25.30;99.90;;;;;;4992643;28;20480;-48
2023/05/04 11:27:55;;;;;;;10.15;2.53;;;25.40;99.90;;;;;;4992203;28;20501;-48
2023/05/04 11:30:28;;;;;;;6.22;2.70;;;25.40;99.90;;;;;;4991407;28;20018;-48
2023/05/04 11:32:56;;;;;;;9.98;2.75;;;25.40;99.90;;;;;;4991706;28;20488;-48
2023/05/04 11:35:22;;;;;;;10.40;2.78;;;25.40;99.90;;;;;;4992210;28;20015;-47
2023/05/04 11:37:49;;;;;;;11.77;3.10;;;25.40;99.90;;;;;;4992101;28;20109;-48
2023/05/04 11:40:17;;;;;;;6.63;3.05;;;25.40;99.90;;;;;;4991425;28;20025;-48
2023/05/04 11:42:43;;;;;;;10.45;3.13;;;25.50;99.90;;;;;;4989039;28;20480;-48
2023/05/04 11:45:36;;;;;;;8.30;3.35;;;25.40;99.90;;;;;;4991348;28;20081;-48
2023/05/04 11:48:02;;;;;;;6.03;2.60;;;25.50;99.90;;;;;;4987675;28;20051;-48
2023/05/04 11:50:28;;;;;;;6.88;4.82;;;25.50;99.90;;;;;;4991094;28;20104;-47
2023/05/04 11:53:08;;;;;;;16.52;10.02;;;25.50;99.90;;;;;;4991418;28;20081;-48
2023/05/04 11:55:36;;;;;;;13.70;7.88;;;25.50;99.90;;;;;;4990153;28;20112;-48
2023/05/04 11:58:09;;;;;;;12.43;5.80;;;25.50;99.90;;;;;;4989492;28;20030;-48
2023/05/04 12:00:38;;;;;;;11.50;4.55;;;25.50;99.90;;;;;;4990980;28;20396;-47
2023/05/04 12:03:07;;;;;;;12.80;4.30;;;25.50;99.90;;;;;;4991301;28;20030;-48
2023/05/04 12:05:35;;;;;;;11.30;4.38;;;25.50;99.90;;;;;;4991277;28;20085;-46
2023/05/04 12:08:02;;;;;;;14.18;4.22;;;25.50;99.90;;;;;;4988685;28;20089;-48
2023/05/04 12:10:30;;;;;;;11.40;4.03;;;25.50;99.90;;;;;;4988017;28;20030;-47
2023/05/04 12:12:56;;;;;;;10.25;4.82;;;25.50;99.90;;;;;;4989739;28;20094;-46
2023/05/04 12:15:31;;;;;;;17.05;6.15;;;25.40;99.90;;;;;;4991158;28;20120;-46
2023/05/04 12:17:58;;;;;;;12.40;6.72;;;25.50;99.90;;;;;;4991409;28;20029;-46
2023/05/04 12:20:27;;;;;;;18.35;10.18;;;25.40;99.90;;;;;;4990904;28;20701;-47
2023/05/04 12:22:54;;;;;;;13.00;8.15;;;25.50;99.90;;;;;;4990456;28;20484;-46
2023/05/04 12:25:20;;;;;;;17.48;10.95;;;25.40;99.90;;;;;;4991699;28;20481;-45
2023/05/04 12:27:47;;;;;;;17.08;8.38;;;25.50;99.90;;;;;;4988589;28;20046;-45
2023/05/04 12:30:13;;;;;;;7.38;4.10;;;25.40;99.90;;;;;;4990342;28;20034;-45
2023/05/04 12:32:40;;;;;;;7.82;3.58;;;25.30;99.90;;;;;;4990851;28;20129;-44
2023/05/04 12:35:06;;;;;;;14.23;6.35;;;25.30;99.90;;;;;;4990612;28;20019;-44
2023/05/04 12:37:31;;;;;;;10.38;5.88;;;25.20;99.90;;;;;;4991044;28;20034;-45
2023/05/04 12:39:57;;;;;;;11.55;6.25;;;25.10;99.90;;;;;;4990238;28;20105;-45
2023/05/04 12:42:23;;;;;;;7.50;3.22;;;25.00;99.90;;;;;;4990474;28;20067;-45
2023/05/04 12:44:49;;;;;;;13.38;4.28;;;24.90;99.90;;;;;;4990699;28;20027;-45
2023/05/04 12:47:16;;;;;;;8.82;2.97;;;24.80;99.90;;;;;;4990697;28;20034;-45